Time;durP1;ratioP1;P1;durP2;ratioP2;P2;SDS_P1;SDS_P2;PMS_P1;PMS_P2;Temp;Humidity;BMP_temperature;BMP_pressure;BME280_temperature;BME280_humidity;BME280_pressure;Samples;Min_cycle;Max_cycle;Signal;HPM_P1;HPM_P2
2023/08/13 07:28:57;;;;;;;;;15.75;15.50;;;;;;;;5122363;27;1363067;-68
2023/08/13 07:31:23;;;;;;;;;14.00;14.00;;;;;;;;5149018;27;11400;-67
2023/08/13 07:33:49;;;;;;;;;12.25;10.75;;;;;;;;5148647;27;8907;-70
2023/08/13 07:36:14;;;;;;;;;13.25;12.50;;;;;;;;5149328;27;8774;-70
2023/08/13 07:39:23;;;;;;;;;7.67;7.00;;;;;;;;5104300;27;13480;-66
2023/08/13 07:41:49;;;;;;;;;10.00;10.00;;;;;;;;5105222;28;9972;-67
2023/08/13 07:44:15;;;;;;;;;10.00;10.00;;;;;;;;5106508;28;8890;-69
2023/08/13 07:46:40;;;;;;;;;11.00;11.00;;;;;;;;5107549;28;8872;-74
2023/08/13 07:49:05;;;;;;;;;10.33;10.33;;;;;;;;5106240;28;8846;-66
2023/08/13 07:51:30;;;;;;;;;12.00;11.00;;;;;;;;5107622;28;8868;-70
2023/08/13 07:53:56;;;;;;;;;15.00;15.00;;;;;;;;5106036;28;8815;-71
2023/08/13 07:56:21;;;;;;;;;13.00;13.00;;;;;;;;5108106;28;8795;-69
2023/08/13 07:58:46;;;;;;;;;10.67;10.00;;;;;;;;5105876;28;8812;-70
2023/08/13 08:01:12;;;;;;;;;10.00;10.00;;;;;;;;5107731;28;8907;-69
2023/08/13 08:03:38;;;;;;;;;14.00;14.00;;;;;;;;5107620;28;8774;-66
2023/08/13 08:06:04;;;;;;;;;11.00;11.00;;;;;;;;5107284;28;8803;-66
2023/08/13 08:08:30;;;;;;;;;8.25;8.25;;;;;;;;5101356;28;8835;-65
2023/08/13 08:10:55;;;;;;;;;10.33;10.33;;;;;;;;5090768;28;8806;-64
2023/08/13 08:13:20;;;;;;;;;12.00;12.00;;;;;;;;5087253;28;8783;-65
2023/08/13 08:15:45;;;;;;;;;12.67;12.67;;;;;;;;5087264;28;8794;-67
2023/08/13 08:18:11;;;;;;;;;11.67;11.67;;;;;;;;5086819;28;8798;-66
2023/08/13 08:20:36;;;;;;;;;16.00;15.33;;;;;;;;5090895;27;8905;-66
2023/08/13 08:23:01;;;;;;;;;18.00;17.67;;;;;;;;5127841;27;8777;-64
2023/08/13 08:25:27;;;;;;;;;10.00;10.00;;;;;;;;5127718;27;8808;-66
2023/08/13 08:27:52;;;;;;;;;13.50;13.50;;;;;;;;5127741;27;9576;-66
2023/08/13 08:30:18;;;;;;;;;24.00;24.00;;;;;;;;5127895;27;8887;-63
2023/08/13 08:32:43;;;;;;;;;12.00;11.50;;;;;;;;5126824;27;8797;-63
2023/08/13 08:35:08;;;;;;;;;10.00;10.00;;;;;;;;5115823;28;8864;-64
2023/08/13 08:37:34;;;;;;;;;13.75;12.75;;;;;;;;5106958;28;8807;-64
2023/08/13 08:39:59;;;;;;;;;10.25;9.75;;;;;;;;5107044;28;8804;-64
2023/08/13 08:42:25;;;;;;;;;11.00;9.00;;;;;;;;5107096;28;8784;-64
2023/08/13 08:44:50;;;;;;;;;11.00;10.50;;;;;;;;5107049;28;8799;-64
2023/08/13 08:47:17;;;;;;;;;15.00;13.00;;;;;;;;5107127;28;8796;-63
2023/08/13 08:49:45;;;;;;;;;8.80;8.80;;;;;;;;5099174;28;9586;-64
2023/08/13 08:52:10;;;;;;;;;11.20;11.20;;;;;;;;5092745;28;8808;-64
2023/08/13 08:54:37;;;;;;;;;9.00;9.00;;;;;;;;5093163;28;8788;-64
2023/08/13 08:57:02;;;;;;;;;12.40;12.00;;;;;;;;5093266;28;8788;-64
2023/08/13 08:59:28;;;;;;;;;16.25;14.25;;;;;;;;5093266;28;8792;-64
2023/08/13 09:01:53;;;;;;;;;29.00;27.67;;;;;;;;5093311;28;8909;-64
2023/08/13 09:04:18;;;;;;;;;10.00;10.00;;;;;;;;5093158;28;8816;-64
2023/08/13 09:06:59;;;;;;;;;9.25;9.25;;;;;;;;5092606;28;8926;-64
2023/08/13 09:09:25;;;;;;;;;21.80;21.80;;;;;;;;5091327;28;8888;-64
2023/08/13 09:11:51;;;;;;;;;12.00;10.40;;;;;;;;5092877;28;8803;-63
2023/08/13 09:14:17;;;;;;;;;16.50;15.00;;;;;;;;5092790;28;8831;-64
2023/08/13 09:16:46;;;;;;;;;16.50;15.50;;;;;;;;5092798;28;8814;-65
2023/08/13 09:19:12;;;;;;;;;12.20;11.20;;;;;;;;5092612;28;11453;-65
2023/08/13 09:21:48;;;;;;;;;10.00;10.00;;;;;;;;5092636;28;8788;-65
2023/08/13 09:24:13;;;;;;;;;10.40;9.80;;;;;;;;5091416;28;9634;-65
2023/08/13 09:26:41;;;;;;;;;10.25;10.25;;;;;;;;5092552;28;8811;-65
2023/08/13 09:29:09;;;;;;;;;10.00;9.00;;;;;;;;5091146;28;8811;-65
2023/08/13 09:31:37;;;;;;;;;9.60;9.20;;;;;;;;5092952;28;8780;-65
2023/08/13 09:34:03;;;;;;;;;11.00;9.40;;;;;;;;5092462;28;8826;-65
2023/08/13 09:36:29;;;;;;;;;10.60;9.80;;;;;;;;5092746;28;8800;-64
2023/08/13 09:39:02;;;;;;;;;10.25;9.75;;;;;;;;5092486;28;8800;-65
2023/08/13 09:41:28;;;;;;;;;9.00;9.00;;;;;;;;5092705;28;11482;-67
2023/08/13 09:43:55;;;;;;;;;11.60;11.60;;;;;;;;5092085;28;8832;-64
2023/08/13 09:46:21;;;;;;;;;9.80;9.80;;;;;;;;5092400;28;8799;-65
2023/08/13 09:48:47;;;;;;;;;9.75;9.75;;;;;;;;5092155;28;9556;-64
2023/08/13 09:51:16;;;;;;;;;12.00;11.75;;;;;;;;5092139;28;9562;-65
2023/08/13 09:53:45;;;;;;;;;10.00;10.00;;;;;;;;5090896;28;8819;-64
2023/08/13 09:56:11;;;;;;;;;10.60;10.60;;;;;;;;5092224;28;8918;-64
2023/08/13 09:58:36;;;;;;;;;10.00;10.00;;;;;;;;5090834;28;8962;-64
2023/08/13 10:01:02;;;;;;;;;12.25;11.25;;;;;;;;5090787;28;8788;-65
2023/08/13 10:03:29;;;;;;;;;18.00;18.00;;;;;;;;5091805;28;8791;-65
2023/08/13 10:05:55;;;;;;;;;14.80;14.40;;;;;;;;5097514;22;8899;-65
2023/08/13 10:08:21;;;;;;;;;20.00;20.00;;;;;;;;5049880;28;8822;-65
2023/08/13 10:10:46;;;;;;;;;14.00;14.00;;;;;;;;5050726;28;8787;-64
2023/08/13 10:13:12;;;;;;;;;12.75;12.75;;;;;;;;5050709;28;12421;-64
2023/08/13 10:15:38;;;;;;;;;12.00;12.00;;;;;;;;5050733;28;8834;-65
2023/08/13 10:18:04;;;;;;;;;12.60;12.60;;;;;;;;5050883;28;9585;-65
2023/08/13 10:20:29;;;;;;;;;12.00;10.50;;;;;;;;5050359;28;8787;-65
2023/08/13 10:22:54;;;;;;;;;12.25;12.25;;;;;;;;5050610;28;8815;-65
2023/08/13 10:25:27;;;;;;;;;13.00;12.50;;;;;;;;5050233;28;8775;-65
2023/08/13 10:27:54;;;;;;;;;13.80;13.00;;;;;;;;5050649;28;8917;-64
2023/08/13 10:30:19;;;;;;;;;14.00;13.20;;;;;;;;5050430;28;8791;-65
2023/08/13 10:32:51;;;;;;;;;10.25;10.25;;;;;;;;5050453;28;8794;-65
2023/08/13 10:35:37;;;;;;;;;13.00;12.80;;;;;;;;5060794;28;8835;-65
2023/08/13 10:38:03;;;;;;;;;12.00;12.00;;;;;;;;5069740;28;9562;-65
2023/08/13 10:40:28;;;;;;;;;12.80;12.80;;;;;;;;5070190;28;8792;-64
2023/08/13 10:42:54;;;;;;;;;12.00;12.00;;;;;;;;5068795;28;8819;-64
2023/08/13 10:45:21;;;;;;;;;13.00;13.00;;;;;;;;5070118;28;8783;-64
2023/08/13 10:47:47;;;;;;;;;12.80;12.80;;;;;;;;5070283;28;8780;-64
2023/08/13 10:50:23;;;;;;;;;13.75;13.25;;;;;;;;5070061;28;8796;-65
2023/08/13 10:52:52;;;;;;;;;12.40;12.40;;;;;;;;5071036;28;8823;-64
2023/08/13 10:55:28;;;;;;;;;13.25;12.50;;;;;;;;5070487;28;8816;-65
2023/08/13 10:57:54;;;;;;;;;14.50;14.50;;;;;;;;5070877;28;9014;-64
2023/08/13 11:00:24;;;;;;;;;16.25;16.25;;;;;;;;5070796;28;8803;-64
2023/08/13 11:02:53;;;;;;;;;20.25;20.00;;;;;;;;5069871;28;8804;-65
2023/08/13 11:05:22;;;;;;;;;20.50;20.00;;;;;;;;5071135;28;8839;-65
2023/08/13 11:07:54;;;;;;;;;12.75;12.75;;;;;;;;5046316;22;9571;-68
2023/08/13 11:10:22;;;;;;;;;12.50;12.50;;;;;;;;5029685;28;8900;-68
2023/08/13 11:12:48;;;;;;;;;13.00;11.40;;;;;;;;5028266;28;8889;-67
2023/08/13 11:15:14;;;;;;;;;16.00;14.33;;;;;;;;5029666;28;8817;-67
2023/08/13 11:17:40;;;;;;;;;15.50;14.00;;;;;;;;5028507;28;8805;-67
2023/08/13 11:20:06;;;;;;;;;13.75;13.75;;;;;;;;5029652;28;8905;-67
2023/08/13 11:22:31;;;;;;;;;17.00;15.67;;;;;;;;5028266;28;8802;-66
2023/08/13 11:24:57;;;;;;;;;17.00;17.00;;;;;;;;5028111;28;8821;-64
2023/08/13 11:27:29;;;;;;;;;15.67;15.33;;;;;;;;5029799;28;9543;-66
2023/08/13 11:29:54;;;;;;;;;13.00;13.00;;;;;;;;5029770;28;8810;-67
2023/08/13 11:32:19;;;;;;;;;15.00;15.00;;;;;;;;5029224;28;8899;-68
2023/08/13 11:34:45;;;;;;;;;22.67;22.00;;;;;;;;5035672;28;8803;-68
2023/08/13 11:37:10;;;;;;;;;15.67;15.00;;;;;;;;5049463;28;8791;-67
2023/08/13 11:39:35;;;;;;;;;18.67;18.67;;;;;;;;5048297;28;8819;-67
2023/08/13 11:42:08;;;;;;;;;21.67;21.00;;;;;;;;5049701;28;8839;-66
2023/08/13 11:44:33;;;;;;;;;13.25;13.25;;;;;;;;5049268;28;8913;-68
2023/08/13 11:47:04;;;;;;;;;16.00;16.00;;;;;;;;5048316;28;8937;-67
2023/08/13 11:49:30;;;;;;;;;15.00;14.50;;;;;;;;5049174;28;8892;-68
2023/08/13 11:51:56;;;;;;;;;13.00;13.00;;;;;;;;5048878;28;8787;-68
2023/08/13 11:54:22;;;;;;;;;12.75;12.75;;;;;;;;5049413;28;8886;-67
2023/08/13 11:56:51;;;;;;;;;22.00;20.67;;;;;;;;5031392;28;8917;-69
2023/08/13 11:59:26;;;;;;;;;16.75;16.25;;;;;;;;5049161;28;8806;-78
2023/08/13 12:01:53;;;;;;;;;16.25;16.25;;;;;;;;5047536;28;8909;-68
2023/08/13 12:04:18;;;;;;;;;14.00;13.00;;;;;;;;5032079;28;8822;-67
2023/08/13 12:06:50;;;;;;;;;16.00;14.67;;;;;;;;5048063;28;8949;-68
2023/08/13 12:09:17;;;;;;;;;13.00;12.25;;;;;;;;5047402;28;8827;-68
2023/08/13 12:11:48;;;;;;;;;24.25;20.75;;;;;;;;5048689;28;8811;-68
2023/08/13 12:14:13;;;;;;;;;15.75;14.50;;;;;;;;5026788;28;8849;-70
2023/08/13 12:16:42;;;;;;;;;16.00;16.00;;;;;;;;5015908;28;8910;-69
2023/08/13 12:19:07;;;;;;;;;16.50;16.50;;;;;;;;5018132;28;8872;-70
2023/08/13 12:21:34;;;;;;;;;15.00;14.67;;;;;;;;5019149;28;9543;-68
2023/08/13 12:23:59;;;;;;;;;14.75;14.75;;;;;;;;5016805;28;8923;-68
2023/08/13 12:26:26;;;;;;;;;13.67;13.00;;;;;;;;5026445;28;9017;-69
2023/08/13 12:28:51;;;;;;;;;14.25;14.25;;;;;;;;5031921;28;8849;-68
2023/08/13 12:31:18;;;;;;;;;15.00;14.67;;;;;;;;5031922;28;8794;-68
2023/08/13 12:33:43;;;;;;;;;15.50;14.75;;;;;;;;5032320;28;8818;-68
2023/08/13 12:36:08;;;;;;;;;16.33;13.67;;;;;;;;5049696;28;8823;-67
2023/08/13 12:38:36;;;;;;;;;13.00;13.00;;;;;;;;5052250;28;8810;-66
2023/08/13 12:41:01;;;;;;;;;15.00;15.00;;;;;;;;5052283;28;8900;-68
2023/08/13 12:43:26;;;;;;;;;14.00;14.00;;;;;;;;5051681;28;8901;-67
2023/08/13 12:45:52;;;;;;;;;16.67;16.67;;;;;;;;5051528;28;8916;-68
2023/08/13 12:48:20;;;;;;;;;17.33;17.33;;;;;;;;5050072;28;8830;-68
2023/08/13 12:50:45;;;;;;;;;14.50;14.50;;;;;;;;5050189;28;8853;-70
2023/08/13 12:53:10;;;;;;;;;15.33;14.00;;;;;;;;5051502;28;8818;-68
2023/08/13 12:55:36;;;;;;;;;15.33;15.00;;;;;;;;5051805;28;8802;-67
2023/08/13 12:58:01;;;;;;;;;14.67;14.67;;;;;;;;5051238;28;8837;-66
2023/08/13 13:00:26;;;;;;;;;14.67;14.67;;;;;;;;5051240;28;8842;-66
2023/08/13 13:02:51;;;;;;;;;16.67;14.00;;;;;;;;5051239;28;8901;-66
2023/08/13 13:05:17;;;;;;;;;17.33;16.67;;;;;;;;5051109;28;8826;-66
2023/08/13 13:07:42;;;;;;;;;16.33;16.00;;;;;;;;5050581;22;8909;-69
2023/08/13 13:10:07;;;;;;;;;14.00;14.00;;;;;;;;5031976;28;8804;-69
2023/08/13 13:12:33;;;;;;;;;19.33;17.00;;;;;;;;5032161;28;8898;-70
2023/08/13 13:14:58;;;;;;;;;17.33;16.33;;;;;;;;5031378;28;8789;-70
2023/08/13 13:17:26;;;;;;;;;19.33;17.00;;;;;;;;5030859;28;8794;-70
2023/08/13 13:19:51;;;;;;;;;18.00;17.50;;;;;;;;5030021;28;8828;-68
2023/08/13 13:22:17;;;;;;;;;16.00;16.00;;;;;;;;5031532;28;8805;-75
2023/08/13 13:24:42;;;;;;;;;19.33;18.00;;;;;;;;5031641;28;8805;-74
2023/08/13 13:27:07;;;;;;;;;18.00;17.33;;;;;;;;5031566;28;8858;-77
2023/08/13 13:29:33;;;;;;;;;15.00;15.00;;;;;;;;5027275;28;8809;-76
2023/08/13 13:31:58;;;;;;;;;12.00;12.00;;;;;;;;5031207;28;8809;-79
2023/08/13 13:34:23;;;;;;;;;17.00;16.33;;;;;;;;5035649;28;8819;-77
2023/08/13 13:36:48;;;;;;;;;16.67;15.67;;;;;;;;5050871;28;8798;-73
2023/08/13 13:39:14;;;;;;;;;13.00;13.00;;;;;;;;5049790;28;9592;-73
2023/08/13 13:41:39;;;;;;;;;23.00;21.33;;;;;;;;5051123;28;8803;-74
2023/08/13 13:44:04;;;;;;;;;18.67;18.67;;;;;;;;5050681;28;8821;-74
2023/08/13 13:46:30;;;;;;;;;14.00;14.00;;;;;;;;5048969;28;8807;-75
2023/08/13 13:48:55;;;;;;;;;15.00;15.00;;;;;;;;5009699;28;8852;-74
2023/08/13 13:51:20;;;;;;;;;16.33;16.33;;;;;;;;5010995;28;8843;-75
2023/08/13 13:53:47;;;;;;;;;17.33;16.67;;;;;;;;5010999;28;8808;-74
2023/08/13 13:56:13;;;;;;;;;15.25;14.50;;;;;;;;5030496;28;8903;-70
2023/08/13 13:58:38;;;;;;;;;16.67;16.67;;;;;;;;5030766;28;8817;-71
2023/08/13 14:01:04;;;;;;;;;18.00;17.33;;;;;;;;5030576;28;8837;-71
2023/08/13 14:03:29;;;;;;;;;14.33;14.33;;;;;;;;5030579;28;8782;-71
2023/08/13 14:05:54;;;;;;;;;17.00;17.00;;;;;;;;5047303;28;8850;-70
2023/08/13 14:08:20;;;;;;;;;15.67;15.67;;;;;;;;5050325;28;8911;-72
2023/08/13 14:10:45;;;;;;;;;17.33;17.00;;;;;;;;5050453;28;8799;-71
2023/08/13 14:13:10;;;;;;;;;17.33;17.33;;;;;;;;5050056;28;8815;-70
2023/08/13 14:15:35;;;;;;;;;14.67;14.67;;;;;;;;5049803;28;8828;-72
2023/08/13 14:18:01;;;;;;;;;18.67;18.33;;;;;;;;5048108;28;8892;-73
2023/08/13 14:20:26;;;;;;;;;22.33;22.33;;;;;;;;5048856;28;8795;-73
2023/08/13 14:22:51;;;;;;;;;16.67;16.67;;;;;;;;5029862;28;8809;-72
2023/08/13 14:25:17;;;;;;;;;21.00;21.00;;;;;;;;5029933;28;8818;-72
2023/08/13 14:27:42;;;;;;;;;16.67;16.67;;;;;;;;5029982;28;8861;-72
2023/08/13 14:30:07;;;;;;;;;12.67;12.00;;;;;;;;5028496;28;8819;-72
2023/08/13 14:32:33;;;;;;;;;15.00;15.00;;;;;;;;5030087;28;9520;-71
2023/08/13 14:34:58;;;;;;;;;16.33;15.33;;;;;;;;5039457;28;9552;-68
2023/08/13 14:37:23;;;;;;;;;17.67;17.67;;;;;;;;5048570;28;8791;-70
2023/08/13 14:39:48;;;;;;;;;14.67;12.33;;;;;;;;5049822;28;8891;-69
2023/08/13 14:42:14;;;;;;;;;13.67;13.67;;;;;;;;5049560;28;8853;-69
2023/08/13 14:44:39;;;;;;;;;14.00;13.67;;;;;;;;5049512;28;9482;-68
2023/08/13 14:47:04;;;;;;;;;16.00;16.00;;;;;;;;5048769;28;8880;-68
2023/08/13 14:49:30;;;;;;;;;13.00;12.67;;;;;;;;5049223;28;8831;-70
2023/08/13 14:51:55;;;;;;;;;17.00;16.67;;;;;;;;5049540;28;8826;-70
2023/08/13 14:54:21;;;;;;;;;13.67;13.67;;;;;;;;5049343;28;8864;-75
2023/08/13 14:56:46;;;;;;;;;14.33;14.33;;;;;;;;5047909;28;9745;-71
2023/08/13 14:59:11;;;;;;;;;12.33;12.00;;;;;;;;5049352;28;8815;-70
2023/08/13 15:01:38;;;;;;;;;15.67;15.67;;;;;;;;5049471;28;8874;-70
2023/08/13 15:04:03;;;;;;;;;17.25;16.50;;;;;;;;5049357;28;8814;-69
2023/08/13 15:06:28;;;;;;;;;14.00;14.00;;;;;;;;5049517;28;8871;-69
2023/08/13 15:08:54;;;;;;;;;17.00;16.00;;;;;;;;5049157;28;8881;-69
2023/08/13 15:11:19;;;;;;;;;13.33;12.67;;;;;;;;5048786;28;8914;-69
2023/08/13 15:13:44;;;;;;;;;13.00;13.00;;;;;;;;5048925;28;8834;-69
2023/08/13 15:16:10;;;;;;;;;12.33;12.33;;;;;;;;5049126;28;8811;-71
2023/08/13 15:18:35;;;;;;;;;12.33;12.33;;;;;;;;5049595;28;8803;-69
2023/08/13 15:21:00;;;;;;;;;10.67;10.67;;;;;;;;5048990;28;8791;-69
2023/08/13 15:23:26;;;;;;;;;17.00;13.67;;;;;;;;5049038;28;8791;-70
2023/08/13 15:25:51;;;;;;;;;13.00;13.00;;;;;;;;5049114;28;8833;-69
2023/08/13 15:28:16;;;;;;;;;12.33;12.33;;;;;;;;5048791;28;9626;-70
2023/08/13 15:30:42;;;;;;;;;16.33;16.33;;;;;;;;5049169;28;8786;-71
2023/08/13 15:33:07;;;;;;;;;18.67;18.67;;;;;;;;5048676;28;8916;-72
2023/08/13 21:55:38;;;;;;;;;10.50;9.00;;;;;;;;5124260;27;13333;-73
2023/08/13 21:58:04;;;;;;;;;9.00;9.00;;;;;;;;5127507;27;8800;-68
2023/08/13 22:00:29;;;;;;;;;8.33;7.00;;;;;;;;5127674;27;8795;-68
2023/08/13 22:02:54;;;;;;;;;9.00;9.00;;;;;;;;5127602;27;9628;-69
2023/08/13 22:05:19;;;;;;;;;9.67;8.33;;;;;;;;5127528;27;8822;-68
2023/08/13 22:07:45;;;;;;;;;8.67;8.67;;;;;;;;5127806;27;8834;-68
2023/08/13 22:10:11;;;;;;;;;7.33;6.67;;;;;;;;5127524;27;8976;-68
2023/08/13 22:12:36;;;;;;;;;9.00;9.00;;;;;;;;5127573;27;8788;-68
2023/08/13 22:15:01;;;;;;;;;9.67;9.67;;;;;;;;5127582;27;8815;-68
2023/08/13 22:17:27;;;;;;;;;8.67;8.67;;;;;;;;5127621;27;8796;-68
2023/08/13 22:19:55;;;;;;;;;8.33;8.33;;;;;;;;5127776;27;8806;-68
2023/08/13 22:22:21;;;;;;;;;12.00;10.00;;;;;;;;5127317;27;8800;-68
2023/08/13 22:24:46;;;;;;;;;8.00;7.33;;;;;;;;5127468;27;8804;-69
2023/08/13 22:27:12;;;;;;;;;8.67;8.67;;;;;;;;5127451;27;8772;-68
2023/08/13 22:29:37;;;;;;;;;11.33;9.00;;;;;;;;5127540;27;8780;-69
2023/08/13 22:32:02;;;;;;;;;9.00;9.00;;;;;;;;5127525;27;8904;-69
2023/08/13 22:34:28;;;;;;;;;9.00;9.00;;;;;;;;5127311;27;8830;-68
2023/08/13 22:36:53;;;;;;;;;5.00;3.00;;;;;;;;5127369;27;8776;-68
2023/08/13 22:39:18;;;;;;;;;10.00;8.33;;;;;;;;5127536;27;8827;-68
2023/08/13 22:41:44;;;;;;;;;8.67;8.67;;;;;;;;5127286;27;8784;-68
2023/08/13 22:44:09;;;;;;;;;11.00;9.00;;;;;;;;5127465;27;8854;-68
2023/08/13 22:46:34;;;;;;;;;7.00;7.00;;;;;;;;5127547;27;8792;-68
2023/08/13 22:48:59;;;;;;;;;7.67;7.67;;;;;;;;5127243;27;8819;-68
2023/08/13 22:51:25;;;;;;;;;7.67;7.67;;;;;;;;5127098;27;8787;-67
2023/08/13 22:53:51;;;;;;;;;6.67;6.67;;;;;;;;5127109;27;8914;-68
2023/08/13 22:56:17;;;;;;;;;10.00;8.25;;;;;;;;5127090;27;8771;-68
2023/08/13 22:58:42;;;;;;;;;9.00;8.67;;;;;;;;5127148;27;8788;-68
2023/08/13 23:01:07;;;;;;;;;11.00;9.00;;;;;;;;5126850;27;8804;-67
2023/08/13 23:03:33;;;;;;;;;7.33;7.33;;;;;;;;5127006;27;8884;-68
2023/08/13 23:05:58;;;;;;;;;6.67;6.33;;;;;;;;5100602;28;8897;-68
2023/08/13 23:08:23;;;;;;;;;7.00;7.00;;;;;;;;5113054;28;8811;-68
2023/08/13 23:10:49;;;;;;;;;8.00;8.00;;;;;;;;5113147;28;8818;-68
2023/08/13 23:13:14;;;;;;;;;9.67;9.00;;;;;;;;5113157;28;8772;-68
2023/08/13 23:15:39;;;;;;;;;8.00;8.00;;;;;;;;5113137;28;9498;-68
2023/08/13 23:18:05;;;;;;;;;10.00;10.00;;;;;;;;5113261;28;8783;-68
2023/08/13 23:20:30;;;;;;;;;11.00;10.00;;;;;;;;5113248;28;8792;-68
2023/08/13 23:22:55;;;;;;;;;8.33;8.00;;;;;;;;5113165;28;8892;-68
2023/08/13 23:25:21;;;;;;;;;9.67;9.00;;;;;;;;5113063;28;8846;-68
2023/08/13 23:27:46;;;;;;;;;13.00;12.67;;;;;;;;5112998;28;8822;-68
2023/08/13 23:30:11;;;;;;;;;10.67;9.00;;;;;;;;5112877;28;8803;-68
2023/08/13 23:32:36;;;;;;;;;8.33;8.00;;;;;;;;5112689;28;8816;-68
2023/08/13 23:35:02;;;;;;;;;8.00;8.00;;;;;;;;5112574;28;8824;-68
2023/08/13 23:37:27;;;;;;;;;9.00;9.00;;;;;;;;5112577;28;8838;-69
2023/08/13 23:39:52;;;;;;;;;11.33;8.33;;;;;;;;5112476;28;8909;-70
2023/08/13 23:42:17;;;;;;;;;8.67;7.00;;;;;;;;5112435;28;8791;-66
2023/08/13 23:44:43;;;;;;;;;7.33;6.00;;;;;;;;5112481;28;8922;-68
2023/08/13 23:47:08;;;;;;;;;9.00;8.67;;;;;;;;5094118;28;8832;-68
2023/08/13 23:49:33;;;;;;;;;9.00;9.00;;;;;;;;5112500;28;8800;-68
2023/08/13 23:51:58;;;;;;;;;6.67;6.67;;;;;;;;5112371;28;8941;-69
2023/08/13 23:54:24;;;;;;;;;6.33;6.33;;;;;;;;5112435;28;8915;-69
2023/08/13 23:56:49;;;;;;;;;7.33;7.33;;;;;;;;5112545;28;8796;-68
2023/08/13 23:59:14;;;;;;;;;8.00;8.00;;;;;;;;5112385;28;8803;-68
